Terminal Aerodrome Forecast
Issued by NWS Grand Rapids, MI

Home | Current Version | Previous Version | Text Only | Print | Product List | Glossary On
Versions: 1 2 3 4 5 6 7 8 9 10 11 12 13 14 15 16 17 18 19 20
000
FTUS43 KGRR 290535
TAFGRR
TAF
KGRR 290535Z 2906/3006 VRB03KT P6SM -SHRA OVC040
     FM291000 11007KT 5SM -SHRA BR OVC035
     FM291600 20007KT P6SM -SHRA OVC035
     FM292100 VRB04KT P6SM OVC050
     FM300300 VRB03KT 4SM BR OVC050=

USA.gov is the U.S. government's official web portal to all federal, state and local government web resources and services.